Hovedside
METAR-TAF:

METAR-TAF

Lufthavner :

Nouakchott internasjonale lufthavn

Nouakchott, Mauritania

breddegrad: 18-18-36N, lengdegrad: 015-58-11W, høyde over havet: 3 m

Gjeldene værobservasjon

Denne rapporten ble laget for 24 minutter siden, klokken 10:30 UTC
Vind 4 kt fra Nord, skiftende mellom Nordvest og Nord-nordøst
Temperatur 29°C
Luftfuktighet 66%
Trykk 1013 hPa
Sikt: 6000 m
Spredte skyer i en høyde av 900 ft

METAR: GQNO 201030Z 35004KT 310V020 6000 SCT009 29/22 Q1013 NOSIG

Tid: 10:54 (10:54 UTC)

Varsel

Denne rapporten ble laget for 5 timer og 54 minutter siden, klokken 05:00 UTC
Varsel gyldig fra 20. klokken 06 UTC til 21. klokken 12 UTC
Vind 10 kt fra Vest-nordvest
Sikt: 7000 m
Spredte skyer i en høyde av 1200 ft

TAF: GQNO 200500Z 2006/2112 30010KT 7000 SCT012

Værobservasjoner og værvarsel for over 4000 flyplasser (METAR- og TAF-rapporter).

Tilgjengelige stasjoner er representert av de røde og gule prikkene på kartet.

Hold musepekeren over prikken for å se navnet på stasjonen.

Klikk så for å se værobservasjoner og -varsler.

For å forandre kartet kan du klikke på den grønne knappen med svart kryss for å zoome inn, på den grønne knappen med strek for å zoome ut, eller på de grønne pilene for å se tilstøtende kart.


METAR-TAF: